Time;durP1;ratioP1;P1;durP2;ratioP2;P2;SDS_P1;SDS_P2;PMS_P1;PMS_P2;Temp;Humidity;BMP_temperature;BMP_pressure;BME280_temperature;BME280_humidity;BME280_pressure;Samples;Min_cycle;Max_cycle;Signal;HPM_P1;HPM_P2
2023/06/26 00:01:06;;;;;;;11.18;7.82;;;;;;;23.80;57.99;101179.81;5020385;28;20028;-64
2023/06/26 00:03:33;;;;;;;9.25;7.28;;;;;;;23.66;58.07;101187.47;5021212;28;20067;-64
2023/06/26 00:06:00;;;;;;;8.25;7.35;;;;;;;23.50;58.44;101188.28;5019566;28;20027;-64
2023/06/26 00:08:26;;;;;;;9.60;7.57;;;;;;;23.44;58.38;101178.44;5021916;28;20029;-64
2023/06/26 00:10:51;;;;;;;9.85;7.60;;;;;;;23.41;58.43;101174.31;5023447;28;20025;-65
2023/06/26 00:13:16;;;;;;;9.40;8.02;;;;;;;23.41;58.43;101162.63;5021347;28;20782;-65
2023/06/26 00:15:41;;;;;;;9.93;8.02;;;;;;;23.35;58.62;101167.16;5023774;28;20030;-64
2023/06/26 00:18:07;;;;;;;12.55;8.13;;;;;;;23.28;59.04;101163.00;5022652;28;20032;-64
2023/06/26 00:20:33;;;;;;;10.50;7.82;;;;;;;23.21;59.10;101159.63;5024359;28;20024;-65
2023/06/26 00:22:59;;;;;;;13.57;8.43;;;;;;;23.16;59.42;101161.19;5026640;28;20022;-64
2023/06/26 00:25:24;;;;;;;11.90;8.60;;;;;;;23.12;59.51;101172.75;5028369;28;20029;-64
2023/06/26 00:27:49;;;;;;;11.27;8.88;;;;;;;23.01;59.91;101160.94;5027083;28;20035;-64
2023/06/26 00:30:15;;;;;;;9.02;8.10;;;;;;;22.92;60.15;101165.09;5028778;28;20487;-64
2023/06/26 00:32:40;;;;;;;9.57;8.57;;;;;;;22.87;60.39;101159.59;5023524;28;20037;-64
2023/06/26 00:35:05;;;;;;;12.75;8.77;;;;;;;22.87;60.35;101156.91;5023973;28;20014;-64
2023/06/26 00:37:31;;;;;;;12.88;9.35;;;;;;;22.88;60.34;101165.84;5025754;28;20026;-64
2023/06/26 00:39:56;;;;;;;10.57;8.43;;;;;;;22.81;60.66;101165.97;5020418;28;20022;-64
2023/06/26 00:42:21;;;;;;;9.73;8.70;;;;;;;22.73;61.02;101166.34;5027433;28;20048;-64
2023/06/26 00:44:46;;;;;;;9.98;8.98;;;;;;;22.58;61.42;101166.09;5018600;28;20022;-64
2023/06/26 00:47:15;;;;;;;10.43;8.63;;;;;;;22.38;61.92;101178.16;5020676;28;20041;-64
2023/06/26 00:49:40;;;;;;;11.40;9.25;;;;;;;22.21;62.27;101179.94;5026372;28;20047;-64
2023/06/26 00:52:06;;;;;;;10.25;9.05;;;;;;;22.03;62.87;101180.09;5019747;28;20479;-64
2023/06/26 00:54:31;;;;;;;12.88;9.65;;;;;;;21.87;63.46;101168.09;5022149;28;20033;-64
2023/06/26 00:56:57;;;;;;;10.70;9.60;;;;;;;21.74;64.23;101169.19;5026753;28;20030;-64
2023/06/26 00:59:22;;;;;;;11.85;10.40;;;;;;;21.59;64.57;101171.53;5026627;28;20034;-64
2023/06/26 01:01:48;;;;;;;11.23;9.50;;;;;;;21.50;64.83;101179.19;5025193;28;20450;-65
2023/06/26 01:04:17;;;;;;;12.10;9.18;;;;;;;21.46;65.19;101174.47;5022075;28;20037;-64
2023/06/26 01:06:48;;;;;;;11.45;8.90;;;;;;;21.37;65.22;101178.56;5021214;28;20049;-64
2023/06/26 01:09:15;;;;;;;9.70;8.70;;;;;;;21.27;65.29;101182.69;5024612;28;20033;-64
2023/06/26 01:11:40;;;;;;;10.00;8.32;;;;;;;21.23;65.97;101189.59;5026143;28;20541;-64
2023/06/26 01:14:06;;;;;;;10.95;8.27;;;;;;;21.22;65.92;101185.22;5020114;28;20148;-64
2023/06/26 01:16:32;;;;;;;9.88;7.75;;;;;;;21.18;65.87;101189.44;5025068;28;20115;-64
2023/06/26 01:18:58;;;;;;;12.23;7.80;;;;;;;21.17;65.77;101192.38;5020996;28;20437;-64
2023/06/26 01:21:32;;;;;;;9.20;7.47;;;;;;;21.10;66.11;101192.47;5025941;28;20040;-64
2023/06/26 01:24:20;;;;;;;8.68;7.07;;;;;;;21.06;66.07;101206.66;5022351;28;20036;-64
2023/06/26 01:26:48;;;;;;;11.13;7.03;;;;;;;21.06;65.79;101196.69;5026903;28;20021;-64
2023/06/26 01:29:16;;;;;;;11.38;6.72;;;;;;;21.04;65.76;101206.91;5020199;28;20233;-64
2023/06/26 01:31:43;;;;;;;12.60;7.07;;;;;;;21.02;65.83;101209.00;5028839;28;20364;-64
2023/06/26 01:34:09;;;;;;;10.82;6.90;;;;;;;21.01;65.84;101215.47;5024253;28;20430;-64
2023/06/26 01:36:34;;;;;;;10.95;6.68;;;;;;;20.96;65.83;101199.13;5023989;28;20064;-64
2023/06/26 01:38:59;;;;;;;7.97;6.43;;;;;;;20.98;65.58;101208.66;5021326;28;20060;-64
2023/06/26 01:41:25;;;;;;;10.50;6.25;;;;;;;20.95;65.35;101206.41;5025701;28;20021;-64
2023/06/26 01:44:02;;;;;;;11.30;6.30;;;;;;;20.89;65.48;101217.31;5023234;28;20036;-64
2023/06/26 01:46:38;;;;;;;8.55;5.65;;;;;;;20.87;65.68;101228.34;5026888;28;20041;-64
2023/06/26 01:49:41;;;;;;;8.07;5.90;;;;;;;20.89;65.28;101226.25;5019817;28;20174;-64
2023/06/26 01:52:31;;;;;;;6.32;5.45;;;;;;;20.85;65.28;101238.56;5018810;28;20034;-64
2023/06/26 01:55:03;;;;;;;7.78;5.38;;;;;;;20.79;65.29;101242.13;5018828;28;20452;-65
2023/06/26 01:57:30;;;;;;;11.07;5.10;;;;;;;20.79;65.04;101235.91;5027870;28;20033;-64
2023/06/26 01:59:56;;;;;;;8.93;4.72;;;;;;;20.73;65.36;101237.66;5016707;28;20702;-64
2023/06/26 02:02:24;;;;;;;8.48;4.72;;;;;;;20.68;65.31;101243.75;5025022;28;20029;-64
2023/06/26 02:04:49;;;;;;;9.32;5.35;;;;;;;20.62;65.35;101239.25;5020431;28;20033;-64
2023/06/26 02:07:15;;;;;;;8.40;4.55;;;;;;;20.59;65.65;101233.50;5024137;28;20025;-64
2023/06/26 02:09:40;;;;;;;10.93;4.50;;;;;;;20.55;65.63;101233.13;5024324;28;20033;-64
2023/06/26 02:12:06;;;;;;;8.68;4.95;;;;;;;20.47;66.01;101230.72;5021887;28;20022;-64
2023/06/26 02:14:31;;;;;;;11.93;4.70;;;;;;;20.44;66.14;101233.06;5018473;28;20044;-64
2023/06/26 02:16:56;;;;;;;8.52;4.68;;;;;;;20.37;66.37;101225.84;5023151;28;20029;-64
2023/06/26 02:19:22;;;;;;;11.38;4.57;;;;;;;20.31;66.56;101224.03;5027217;28;20029;-64
2023/06/26 02:21:50;;;;;;;7.82;4.80;;;;;;;20.26;66.56;101236.56;5025941;28;20018;-64
2023/06/26 02:24:16;;;;;;;11.45;4.70;;;;;;;20.18;67.00;101232.28;5019013;28;20022;-64
2023/06/26 02:26:41;;;;;;;8.10;4.68;;;;;;;20.10;67.32;101227.19;5020196;28;20033;-64
2023/06/26 02:29:06;;;;;;;8.88;4.53;;;;;;;20.04;67.67;101228.09;5017441;28;20021;-64
2023/06/26 02:31:32;;;;;;;6.15;4.80;;;;;;;19.94;67.95;101230.44;5015714;28;20498;-64
2023/06/26 02:33:57;;;;;;;10.88;5.22;;;;;;;19.93;68.28;101231.50;5023298;28;20056;-64
2023/06/26 02:36:22;;;;;;;13.77;5.00;;;;;;;19.88;68.61;101242.13;5027282;28;20034;-63
2023/06/26 02:38:48;;;;;;;10.45;4.80;;;;;;;19.81;69.08;101236.81;5020496;28;20029;-64
2023/06/26 02:41:13;;;;;;;15.25;5.28;;;;;;;19.77;69.54;101238.28;5024917;28;20565;-64
2023/06/26 02:43:38;;;;;;;10.23;5.13;;;;;;;19.74;69.57;101249.53;5016292;28;20026;-64
2023/06/26 02:46:04;;;;;;;12.40;5.28;;;;;;;19.72;69.89;101251.63;5014655;28;20029;-64
2023/06/26 02:48:29;;;;;;;11.52;5.38;;;;;;;19.65;70.44;101253.53;5021162;28;20041;-64
2023/06/26 02:50:54;;;;;;;13.82;5.60;;;;;;;19.60;70.75;101262.25;5023667;28;20022;-64
2023/06/26 02:53:19;;;;;;;9.30;5.20;;;;;;;19.50;71.11;101267.31;5027208;28;20044;-64
2023/06/26 02:55:47;;;;;;;10.85;5.30;;;;;;;19.42;71.40;101264.88;5029834;28;20025;-64
2023/06/26 02:58:12;;;;;;;10.98;5.75;;;;;;;19.47;71.92;101257.78;5023911;28;20544;-65
2023/06/26 03:00:41;;;;;;;10.45;5.43;;;;;;;19.50;71.59;101270.00;5027071;28;20120;-64
2023/06/26 03:03:06;;;;;;;11.13;5.30;;;;;;;19.49;72.04;101269.16;5016142;28;20041;-63
2023/06/26 03:05:32;;;;;;;8.32;5.10;;;;;;;19.53;72.08;101263.34;5023336;28;20394;-64
2023/06/26 03:07:57;;;;;;;10.68;5.60;;;;;;;19.50;72.54;101276.22;5011994;28;20092;-64
2023/06/26 03:10:22;;;;;;;10.43;5.45;;;;;;;19.53;72.66;101280.34;5014978;28;20685;-64
2023/06/26 03:12:48;;;;;;;9.63;5.20;;;;;;;19.47;72.95;101271.25;5020111;28;20034;-64
2023/06/26 03:15:13;;;;;;;11.10;5.10;;;;;;;19.47;72.70;101271.25;5022669;28;20036;-64
2023/06/26 03:17:38;;;;;;;11.27;5.57;;;;;;;19.44;73.22;101278.94;5013564;28;20026;-64
2023/06/26 03:20:06;;;;;;;11.50;5.45;;;;;;;19.41;73.52;101282.91;5023128;28;20030;-64
2023/06/26 03:22:32;;;;;;;11.93;5.78;;;;;;;19.36;73.64;101285.41;5021927;28;20029;-64
2023/06/26 03:24:57;;;;;;;15.25;5.97;;;;;;;19.35;73.91;101278.38;5021883;28;20128;-64
2023/06/26 03:27:23;;;;;;;11.60;5.03;;;;;;;19.30;74.49;101267.44;5025881;28;20043;-64
2023/06/26 03:29:48;;;;;;;11.07;5.05;;;;;;;19.34;74.91;101274.03;5028300;28;20025;-64
2023/06/26 03:32:13;;;;;;;14.13;5.72;;;;;;;19.35;74.97;101267.59;5020569;28;20025;-64
2023/06/26 03:34:38;;;;;;;13.32;5.90;;;;;;;19.33;75.44;101276.94;5018784;28;20112;-64
2023/06/26 03:37:04;;;;;;;12.55;6.30;;;;;;;19.27;75.82;101261.66;5029672;28;20387;-64
2023/06/26 03:39:29;;;;;;;17.85;5.65;;;;;;;19.26;75.98;101271.59;5023071;28;20029;-64
2023/06/26 03:41:54;;;;;;;10.95;5.70;;;;;;;19.22;76.68;101265.00;5024091;28;20025;-64
2023/06/26 03:44:22;;;;;;;14.60;5.70;;;;;;;19.19;76.46;101273.53;5022647;28;20040;-63
2023/06/26 03:46:47;;;;;;;14.65;6.47;;;;;;;19.18;76.44;101278.09;5030118;28;20436;-64
2023/06/26 03:49:12;;;;;;;13.38;5.60;;;;;;;19.14;77.01;101286.81;5030488;28;20479;-64
2023/06/26 03:51:38;;;;;;;15.73;5.95;;;;;;;19.15;77.04;101285.78;5026552;28;20040;-64
2023/06/26 03:54:03;;;;;;;14.73;5.72;;;;;;;19.16;77.31;101290.13;5023418;28;20022;-64
2023/06/26 03:56:28;;;;;;;14.20;5.93;;;;;;;19.16;77.71;101290.13;5026100;28;20517;-65
2023/06/26 03:58:54;;;;;;;15.13;6.70;;;;;;;19.11;78.06;101281.88;5029388;28;20117;-64
2023/06/26 04:01:21;;;;;;;15.18;6.55;;;;;;;19.09;78.09;101289.34;5028419;28;20025;-64
2023/06/26 04:03:46;;;;;;;14.13;5.70;;;;;;;19.07;78.29;101296.78;5020910;28;20061;-64
2023/06/26 04:06:12;;;;;;;13.30;6.18;;;;;;;19.02;78.25;101302.81;5027811;28;20099;-64
2023/06/26 04:08:37;;;;;;;14.15;6.22;;;;;;;19.03;78.26;101314.41;5027023;28;20620;-64
2023/06/26 04:11:02;;;;;;;16.67;6.45;;;;;;;19.06;78.47;101311.28;5027882;28;20021;-64
2023/06/26 04:13:27;;;;;;;16.17;6.00;;;;;;;19.07;78.65;101312.94;5026198;28;20045;-64
2023/06/26 04:15:53;;;;;;;18.40;6.10;;;;;;;19.07;78.99;101316.44;5022655;28;20395;-65
2023/06/26 04:18:20;;;;;;;16.20;6.10;;;;;;;19.09;79.38;101318.94;5019875;28;20048;-64
2023/06/26 04:21:11;;;;;;;14.82;5.78;;;;;;;19.13;79.75;101321.00;5027023;28;20025;-64
2023/06/26 04:23:38;;;;;;;18.95;6.35;;;;;;;19.15;79.95;101318.91;5025607;28;20028;-64
2023/06/26 04:26:06;;;;;;;18.25;6.13;;;;;;;19.18;80.05;101331.09;5021505;28;20019;-64
2023/06/26 04:28:32;;;;;;;13.50;5.55;;;;;;;19.22;79.91;101332.31;5020379;28;20471;-64
2023/06/26 04:30:58;;;;;;;16.55;6.15;;;;;;;19.21;80.14;101325.28;5026908;28;20076;-63
2023/06/26 04:33:25;;;;;;;20.58;6.18;;;;;;;19.25;80.46;101325.69;5031340;28;20104;-64
2023/06/26 04:35:51;;;;;;;17.35;5.65;;;;;;;19.27;80.41;101332.50;5021391;28;20032;-64
2023/06/26 04:38:16;;;;;;;19.10;6.22;;;;;;;19.30;79.82;101342.00;5026229;28;20045;-64
2023/06/26 04:40:41;;;;;;;18.92;5.70;;;;;;;19.27;80.00;101348.66;5026568;28;20483;-63
2023/06/26 04:43:06;;;;;;;16.73;5.80;;;;;;;19.27;79.78;101343.28;5028753;28;20088;-63
2023/06/26 04:45:32;;;;;;;16.85;5.70;;;;;;;19.29;79.71;101356.53;5029992;28;20029;-64
2023/06/26 04:47:57;;;;;;;17.63;5.88;;;;;;;19.26;79.87;101349.69;5023257;28;20682;-64
2023/06/26 04:50:23;;;;;;;16.20;5.60;;;;;;;19.23;79.83;101352.81;5028518;28;20021;-63
2023/06/26 04:52:48;;;;;;;22.35;5.93;;;;;;;19.18;79.88;101361.56;5020905;28;20513;-64
2023/06/26 04:55:13;;;;;;;18.95;5.90;;;;;;;19.12;79.86;101364.28;5027087;28;20033;-63
2023/06/26 04:57:38;;;;;;;18.20;5.60;;;;;;;19.06;79.95;101360.56;5032393;28;20060;-64
2023/06/26 05:00:09;;;;;;;16.83;6.05;;;;;;;19.06;79.93;101365.13;5026719;28;20041;-63
2023/06/26 05:02:35;;;;;;;17.67;5.78;;;;;;;19.06;80.06;101371.31;5022995;28;20126;-64
2023/06/26 05:05:00;;;;;;;18.58;5.80;;;;;;;19.06;80.17;101368.63;5022257;28;20482;-64
2023/06/26 05:07:25;;;;;;;19.17;6.05;;;;;;;19.03;80.52;101370.94;5028850;28;20029;-64
2023/06/26 05:09:50;;;;;;;19.10;6.40;;;;;;;19.02;80.68;101370.09;5023849;28;20026;-64
2023/06/26 05:12:16;;;;;;;21.52;6.55;;;;;;;19.06;80.70;101375.88;5028953;28;20032;-63
2023/06/26 05:14:41;;;;;;;18.00;5.80;;;;;;;19.05;80.87;101379.63;5025506;28;20048;-64
2023/06/26 05:17:06;;;;;;;17.33;5.80;;;;;;;19.08;80.85;101385.44;5025817;28;20036;-64
2023/06/26 05:19:31;;;;;;;16.70;5.47;;;;;;;19.11;80.63;101389.56;5020390;28;20608;-64
2023/06/26 05:21:58;;;;;;;16.20;5.63;;;;;;;19.15;80.41;101390.78;5024367;28;20036;-63
2023/06/26 05:24:24;;;;;;;19.80;5.55;;;;;;;19.14;80.57;101389.94;5020436;28;20605;-63
2023/06/26 05:26:50;;;;;;;17.90;5.82;;;;;;;19.14;80.47;101389.94;5026922;28;20053;-63
2023/06/26 05:29:16;;;;;;;21.73;5.75;;;;;;;19.15;80.11;101393.47;5021509;28;20053;-64
2023/06/26 05:31:44;;;;;;;21.85;5.97;;;;;;;19.11;80.11;101392.25;5023527;28;20025;-63
2023/06/26 05:34:10;;;;;;;17.77;5.43;;;;;;;19.16;80.06;101389.75;5024101;28;20486;-64
2023/06/26 05:36:36;;;;;;;21.38;5.43;;;;;;;19.20;79.98;101401.72;5025416;28;20029;-63
2023/06/26 05:39:02;;;;;;;17.60;5.38;;;;;;;19.18;79.63;101407.34;5024146;28;20017;-63
2023/06/26 05:41:28;;;;;;;19.00;5.28;;;;;;;19.15;79.66;101413.16;5027379;28;20392;-63
2023/06/26 05:43:54;;;;;;;21.45;5.30;;;;;;;19.14;79.14;101418.75;5028047;28;20083;-63
2023/06/26 05:46:19;;;;;;;16.77;5.35;;;;;;;19.14;79.02;101426.81;5024778;28;20024;-64
2023/06/26 05:48:45;;;;;;;21.38;5.55;;;;;;;19.12;78.96;101424.34;5021506;28;20025;-64
2023/06/26 05:51:10;;;;;;;22.30;5.55;;;;;;;19.14;79.28;101426.81;5025152;28;20443;-63
2023/06/26 05:53:36;;;;;;;17.55;5.30;;;;;;;19.17;79.05;101427.22;5025004;28;20029;-63
2023/06/26 05:56:01;;;;;;;22.35;5.55;;;;;;;19.19;79.45;101425.13;5024170;28;20113;-63
2023/06/26 05:58:30;;;;;;;20.25;5.20;;;;;;;19.23;79.23;101433.63;5023179;28;20048;-63
2023/06/26 06:00:55;;;;;;;15.40;5.13;;;;;;;19.21;78.80;101421.41;5019964;28;20052;-63
2023/06/26 06:03:21;;;;;;;16.90;5.22;;;;;;;19.26;79.27;101430.50;5030712;28;20410;-63
2023/06/26 06:05:46;;;;;;;15.65;5.10;;;;;;;19.29;79.11;101446.22;5021622;28;20450;-63
2023/06/26 06:08:11;;;;;;;19.25;4.90;;;;;;;19.36;78.99;101438.94;5019997;28;20368;-64
2023/06/26 06:10:37;;;;;;;13.85;4.68;;;;;;;19.40;78.59;101450.97;5023378;28;20033;-63
2023/06/26 06:13:02;;;;;;;19.40;5.22;;;;;;;19.47;78.48;101459.81;5026898;28;20132;-63
2023/06/26 06:15:27;;;;;;;19.73;4.88;;;;;;;19.54;78.21;101445.53;5023963;28;20498;-63
2023/06/26 06:17:52;;;;;;;18.42;5.43;;;;;;;19.54;77.81;101457.13;5022302;28;20036;-63
2023/06/26 06:20:21;;;;;;;14.80;4.80;;;;;;;19.59;78.02;101461.88;5021276;28;20037;-63
2023/06/26 06:22:48;;;;;;;12.88;4.82;;;;;;;19.61;77.58;101468.69;5020425;28;20017;-63
2023/06/26 06:25:13;;;;;;;14.30;4.85;;;;;;;19.57;77.28;101464.78;5026498;28;20033;-63
2023/06/26 06:27:38;;;;;;;18.25;4.90;;;;;;;19.55;77.38;101474.13;5018227;28;20033;-63
2023/06/26 06:30:04;;;;;;;13.23;4.57;;;;;;;19.57;77.83;101469.34;5023355;28;20068;-64
2023/06/26 06:32:29;;;;;;;15.82;4.68;;;;;;;19.62;77.56;101470.34;5024833;28;20041;-63
2023/06/26 06:34:55;;;;;;;13.77;4.68;;;;;;;19.70;77.12;101464.72;5023960;28;20017;-63
2023/06/26 06:37:20;;;;;;;13.18;4.10;;;;;;;19.78;76.50;101477.94;5023272;28;20028;-63
2023/06/26 06:39:45;;;;;;;13.05;4.40;;;;;;;19.87;75.91;101472.28;5015281;28;20030;-63
2023/06/26 06:42:10;;;;;;;15.45;4.60;;;;;;;19.92;75.52;101480.56;5022914;28;20101;-63
2023/06/26 06:44:36;;;;;;;16.48;4.47;;;;;;;20.03;74.98;101494.19;5018671;28;20380;-63
2023/06/26 06:47:01;;;;;;;15.20;4.75;;;;;;;20.07;75.29;101495.41;5026126;28;20029;-63
2023/06/26 06:49:27;;;;;;;11.27;4.40;;;;;;;20.25;75.45;101499.25;5021509;28;20037;-63
2023/06/26 06:51:52;;;;;;;13.45;4.60;;;;;;;20.36;75.08;101501.22;5018713;28;20537;-63
2023/06/26 06:54:17;;;;;;;10.93;3.80;;;;;;;20.34;74.48;101511.41;5022944;28;20029;-63
2023/06/26 06:56:43;;;;;;;14.10;3.80;;;;;;;20.23;73.77;101499.44;5016872;28;20034;-63
2023/06/26 06:59:08;;;;;;;9.60;4.20;;;;;;;20.16;73.48;101514.00;5023779;28;20034;-64
2023/06/26 07:01:33;;;;;;;11.68;4.18;;;;;;;20.09;73.60;101516.75;5021483;28;20021;-63
2023/06/26 07:03:59;;;;;;;12.27;4.00;;;;;;;20.00;73.49;101520.75;5019764;28;20056;-63
2023/06/26 07:06:24;;;;;;;12.10;4.35;;;;;;;19.94;73.55;101535.91;5024225;28;20025;-63
2023/06/26 07:08:49;;;;;;;11.52;4.28;;;;;;;19.95;73.21;101536.72;5026434;28;20030;-63
2023/06/26 07:11:15;;;;;;;11.80;4.38;;;;;;;20.03;73.63;101529.25;5022500;28;20048;-63
2023/06/26 07:13:40;;;;;;;13.07;4.10;;;;;;;20.19;73.97;101524.38;5027292;28;20060;-63
2023/06/26 07:16:05;;;;;;;9.07;3.80;;;;;;;20.27;73.78;101529.53;5026317;28;20022;-63
2023/06/26 07:18:31;;;;;;;8.98;4.07;;;;;;;20.38;73.40;101534.22;5028285;28;20031;-64
2023/06/26 07:20:56;;;;;;;10.90;4.10;;;;;;;20.49;72.87;101538.91;5024775;28;20022;-63
2023/06/26 07:23:21;;;;;;;10.27;4.05;;;;;;;20.52;72.20;101541.19;5028799;28;20025;-63
2023/06/26 07:25:46;;;;;;;10.38;4.53;;;;;;;20.57;71.99;101543.25;5022254;28;20116;-63
2023/06/26 07:28:12;;;;;;;7.93;3.47;;;;;;;20.61;72.05;101541.75;5021069;28;20490;-64
2023/06/26 07:30:38;;;;;;;9.48;4.55;;;;;;;20.71;71.99;101542.06;5029287;28;20025;-63
2023/06/26 07:33:03;;;;;;;7.72;4.18;;;;;;;20.78;71.95;101545.53;5032098;28;20049;-63
2023/06/26 07:35:28;;;;;;;9.13;4.00;;;;;;;20.72;71.80;101555.34;5020793;28;20030;-64
2023/06/26 07:37:54;;;;;;;9.80;4.43;;;;;;;20.58;71.45;101558.38;5022773;28;20076;-64
2023/06/26 07:40:19;;;;;;;7.63;3.85;;;;;;;20.44;70.95;101564.91;5025524;28;20470;-63
2023/06/26 07:42:46;;;;;;;12.95;4.07;;;;;;;20.33;71.59;101575.34;5020653;28;20041;-63
2023/06/26 07:45:12;;;;;;;13.20;3.80;;;;;;;20.27;71.39;101575.38;5027230;28;20474;-63
2023/06/26 07:47:38;;;;;;;7.38;3.20;;;;;;;20.20;71.72;101572.69;5026242;28;20116;-63
2023/06/26 07:50:04;;;;;;;8.73;3.25;;;;;;;20.20;70.48;101578.09;5028045;28;20168;-63
2023/06/26 07:52:30;;;;;;;10.20;3.55;;;;;;;20.17;70.23;101589.31;5026084;28;20614;-63
2023/06/26 07:54:55;;;;;;;7.85;2.97;;;;;;;20.15;70.04;101593.25;5026464;28;20550;-63
2023/06/26 07:57:21;;;;;;;7.60;3.70;;;;;;;20.18;69.62;101590.13;5022106;28;20033;-63
2023/06/26 07:59:46;;;;;;;7.00;3.40;;;;;;;20.31;69.50;101593.59;5023345;28;20079;-63
2023/06/26 08:02:11;;;;;;;8.68;3.13;;;;;;;20.47;68.76;101583.34;5028897;28;20036;-63
2023/06/26 08:04:36;;;;;;;5.55;2.90;;;;;;;20.62;68.41;101603.59;5022035;28;20033;-63
2023/06/26 08:07:03;;;;;;;5.90;2.72;;;;;;;20.63;68.38;101591.75;5030033;28;20472;-64
2023/06/26 08:09:30;;;;;;;5.13;2.22;;;;;;;20.50;67.15;101601.81;5027618;28;20068;-64
2023/06/26 08:11:56;;;;;;;4.72;1.70;;;;;;;20.32;66.24;101607.91;5024213;28;20060;-63
2023/06/26 08:14:23;;;;;;;9.00;2.10;;;;;;;20.18;65.10;101617.94;5024974;28;20030;-63
2023/06/26 08:16:48;;;;;;;4.55;1.63;;;;;;;20.08;65.25;101621.09;5024083;28;20087;-63
2023/06/26 08:19:14;;;;;;;4.13;1.85;;;;;;;19.95;65.37;101613.09;5024734;28;20038;-63
2023/06/26 08:21:41;;;;;;;7.35;2.17;;;;;;;19.80;65.79;101610.63;5023527;28;20029;-63
2023/06/26 08:24:06;;;;;;;5.75;1.80;;;;;;;19.88;66.41;101619.50;5023807;28;20025;-62
2023/06/26 08:26:32;;;;;;;5.32;1.88;;;;;;;20.06;66.14;101619.66;5024345;28;20037;-63
2023/06/26 08:28:57;;;;;;;5.75;1.75;;;;;;;20.14;64.87;101615.88;5021458;28;20067;-63
2023/06/26 08:31:22;;;;;;;5.57;1.80;;;;;;;20.20;64.96;101612.31;5015447;28;20017;-63
2023/06/26 08:33:47;;;;;;;4.20;1.60;;;;;;;20.32;64.39;101619.53;5025722;28;20021;-63
2023/06/26 08:36:13;;;;;;;3.88;1.70;;;;;;;20.51;64.02;101601.59;5026471;28;20036;-63
2023/06/26 08:38:42;;;;;;;4.93;1.65;;;;;;;20.65;63.45;101618.53;5025347;28;20463;-63
2023/06/26 08:41:08;;;;;;;9.57;1.92;;;;;;;20.74;62.65;101611.81;5018827;28;20053;-63
2023/06/26 08:43:34;;;;;;;8.25;1.80;;;;;;;20.82;62.11;101619.66;5024432;28;20021;-63
2023/06/26 08:46:00;;;;;;;6.07;1.75;;;;;;;20.93;61.86;101618.94;5028527;28;20523;-63
2023/06/26 08:48:25;;;;;;;3.60;1.67;;;;;;;21.06;61.89;101633.38;5025604;28;20109;-63
2023/06/26 08:50:52;;;;;;;6.15;1.35;;;;;;;21.07;61.10;101630.47;5028025;28;20037;-63
2023/06/26 08:53:42;;;;;;;5.82;1.70;;;;;;;21.19;61.72;101636.81;5023711;28;20033;-63
2023/06/26 08:56:08;;;;;;;3.33;1.50;;;;;;;21.29;60.70;101653.38;5022206;28;20412;-63
2023/06/26 08:58:37;;;;;;;6.22;1.40;;;;;;;21.33;60.00;101637.53;5024522;28;20029;-63
2023/06/26 09:01:04;;;;;;;8.10;1.65;;;;;;;21.29;59.35;101652.53;5022070;28;20021;-63
2023/06/26 09:03:30;;;;;;;4.72;1.50;;;;;;;21.34;59.57;101647.28;5020038;28;20108;-63
2023/06/26 09:05:56;;;;;;;8.00;1.80;;;;;;;21.47;59.02;101644.47;5027095;28;20025;-63
2023/06/26 09:08:21;;;;;;;6.43;1.50;;;;;;;21.42;58.67;101638.94;5032191;28;20037;-63
2023/06/26 09:10:46;;;;;;;3.67;1.35;;;;;;;21.23;58.65;101642.59;5023270;28;20633;-65
2023/06/26 09:13:11;;;;;;;9.48;1.60;;;;;;;21.19;59.06;101647.63;5024018;28;20037;-63
2023/06/26 09:15:44;;;;;;;9.55;1.70;;;;;;;21.17;58.63;101660.53;5025660;28;20425;-63
2023/06/26 09:18:09;;;;;;;5.63;1.80;;;;;;;21.05;59.44;101662.25;5025123;28;20083;-64
2023/06/26 09:20:35;;;;;;;3.55;1.40;;;;;;;21.02;58.99;101651.91;5022491;28;20028;-63
2023/06/26 09:23:01;;;;;;;5.13;1.60;;;;;;;21.14;58.61;101660.97;5025721;28;20100;-63
2023/06/26 09:25:28;;;;;;;8.02;1.60;;;;;;;21.19;58.28;101644.91;5027462;28;20025;-65
2023/06/26 09:27:53;;;;;;;6.55;2.00;;;;;;;21.17;58.03;101648.88;5027746;28;20025;-65
2023/06/26 09:30:18;;;;;;;5.35;1.50;;;;;;;21.16;57.43;101661.56;5021492;28;20032;-63
2023/06/26 09:32:44;;;;;;;8.45;1.73;;;;;;;21.32;58.98;101665.59;5024018;28;20021;-63
2023/06/26 09:35:10;;;;;;;4.78;1.73;;;;;;;21.36;58.35;101677.63;5025216;28;20029;-63
2023/06/26 09:37:35;;;;;;;7.78;1.65;;;;;;;21.34;58.41;101677.84;5033063;28;20029;-63
2023/06/26 09:40:00;;;;;;;4.72;1.77;;;;;;;21.24;58.19;101677.53;5026262;28;20028;-63
2023/06/26 09:42:26;;;;;;;5.20;1.40;;;;;;;21.17;58.75;101684.84;5022208;28;20040;-63
2023/06/26 09:44:51;;;;;;;4.90;1.80;;;;;;;21.12;59.13;101684.66;5025142;28;20029;-63
2023/06/26 09:47:19;;;;;;;7.68;1.52;;;;;;;21.01;58.69;101694.28;5022755;28;20553;-63
2023/06/26 09:49:44;;;;;;;5.28;1.67;;;;;;;20.97;58.56;101701.19;5019162;28;20491;-63
2023/06/26 09:52:15;;;;;;;5.03;1.50;;;;;;;21.19;59.03;101701.66;5024998;28;20032;-62
2023/06/26 09:54:40;;;;;;;3.33;1.55;;;;;;;21.46;58.86;101702.28;5022859;28;20018;-63
2023/06/26 09:57:09;;;;;;;2.92;1.58;;;;;;;21.63;57.36;101702.53;5028366;28;20068;-63
2023/06/26 09:59:35;;;;;;;;;;;;;;;21.78;57.27;101699.50;5027342;28;20036;-63
2023/06/26 10:02:00;;;;;;;5.63;1.60;;;;;;;21.46;55.23;101717.69;5022710;28;19908;-63
2023/06/26 10:04:26;;;;;;;4.32;1.20;;;;;;;21.32;55.27;101706.13;5020720;28;20040;-63
2023/06/26 10:06:54;;;;;;;5.65;1.10;;;;;;;21.30;54.93;101711.75;5020422;28;20883;-63
2023/06/26 10:09:20;;;;;;;13.63;1.83;;;;;;;21.34;54.93;101712.97;5015847;28;20514;-64
2023/06/26 10:12:13;;;;;;;6.63;1.50;;;;;;;21.41;55.42;101718.34;5022724;28;20029;-63
2023/06/26 10:14:41;;;;;;;6.20;1.38;;;;;;;21.58;55.85;101726.72;5016693;28;20075;-63
2023/06/26 10:17:10;;;;;;;5.75;1.23;;;;;;;21.64;54.55;101718.53;5016315;28;20029;-63
2023/06/26 10:19:37;;;;;;;;;;;;;;;21.86;55.12;101716.25;5020586;28;20040;-63
2023/06/26 10:22:03;;;;;;;4.30;1.20;;;;;;;22.01;53.63;101728.59;5024403;28;19913;-63
2023/06/26 10:24:33;;;;;;;3.78;1.50;;;;;;;22.07;53.27;101731.25;5030564;28;20052;-64
2023/06/26 10:27:14;;;;;;;3.20;1.20;;;;;;;22.14;52.95;101742.00;5022984;28;20109;-63
2023/06/26 10:29:40;;;;;;;3.22;1.45;;;;;;;22.13;52.58;101726.81;5021636;28;20099;-63
2023/06/26 10:32:07;;;;;;;6.18;1.60;;;;;;;22.03;51.72;101724.59;5024151;28;20041;-64
2023/06/26 10:34:33;;;;;;;5.30;1.20;;;;;;;21.86;51.78;101713.53;5029621;28;20030;-64
2023/06/26 10:37:04;;;;;;;3.58;1.20;;;;;;;21.89;51.80;101718.50;5026994;28;20025;-64
2023/06/26 10:39:54;;;;;;;4.43;1.40;;;;;;;21.99;50.88;101725.28;5019776;28;20034;-63
2023/06/26 10:42:28;;;;;;;7.63;1.30;;;;;;;22.10;51.31;101738.09;5018609;28;20022;-63
2023/06/26 10:44:53;;;;;;;6.22;1.50;;;;;;;22.11;51.45;101743.25;5027890;28;20049;-63
2023/06/26 10:47:31;;;;;;;3.67;1.35;;;;;;;22.14;49.68;101761.75;5028672;28;20030;-63
2023/06/26 10:49:57;;;;;;;3.47;1.00;;;;;;;22.16;48.89;101770.47;5021179;28;20026;-63
2023/06/26 10:52:26;;;;;;;2.72;1.10;;;;;;;22.14;48.74;101752.81;5026186;28;20029;-63
2023/06/26 10:54:54;;;;;;;;;;;;;;;22.15;48.74;101743.63;5021287;28;20044;-63
2023/06/26 10:57:25;;;;;;;2.97;1.10;;;;;;;22.09;48.74;101729.13;5031252;28;19920;-63
2023/06/26 11:00:09;;;;;;;4.05;1.10;;;;;;;22.21;49.56;101737.31;5023788;28;20025;-63
2023/06/26 11:02:48;;;;;;;4.35;1.40;;;;;;;22.27;48.39;101754.56;5026960;28;20075;-64
2023/06/26 11:05:24;;;;;;;2.90;1.30;;;;;;;22.09;47.27;101760.78;5017631;28;20022;-64
2023/06/26 11:08:03;;;;;;;2.00;1.10;;;;;;;21.82;47.18;101763.72;5029789;28;20072;-64
2023/06/26 11:10:29;;;;;;;3.15;1.10;;;;;;;21.62;46.53;101760.34;5030372;28;20064;-63
2023/06/26 11:12:57;;;;;;;4.60;1.20;;;;;;;21.57;47.28;101758.31;5021293;28;20479;-64
2023/06/26 11:15:26;;;;;;;2.15;1.10;;;;;;;21.73;47.60;101765.06;5028952;28;20083;-63
2023/06/26 11:17:52;;;;;;;5.22;1.23;;;;;;;21.89;46.90;101774.47;5028649;28;20167;-63
2023/06/26 11:20:17;;;;;;;2.83;1.20;;;;;;;21.91;47.53;101750.72;5036312;28;20679;-64